Time;durP1;ratioP1;P1;durP2;ratioP2;P2;SDS_P1;SDS_P2;PMS_P1;PMS_P2;Temp;Humidity;BMP_temperature;BMP_pressure;BME280_temperature;BME280_humidity;BME280_pressure;Samples;Min_cycle;Max_cycle;Signal;HPM_P1;HPM_P2
2022/01/22 00:01:56;;;;;;;;;16.00;12.00;;;;;-146.25;100.00;57879.81;5058221;28;45485;-73
2022/01/22 00:04:22;;;;;;;;;12.00;11.75;;;;;-146.25;100.00;57879.81;5057922;28;46297;-74
2022/01/22 00:06:50;;;;;;;;;9.25;9.25;;;;;-146.25;100.00;57879.81;5058000;28;45685;-74
2022/01/22 00:09:16;;;;;;;;;9.75;9.00;;;;;-146.25;100.00;57879.81;5057920;28;45558;-73
2022/01/22 00:11:51;;;;;;;;;11.75;11.75;;;;;-146.25;100.00;57879.81;5057962;28;45453;-73
2022/01/22 00:14:25;;;;;;;;;11.00;8.50;;;;;-146.25;100.00;57879.81;5057796;28;46124;-74
2022/01/22 00:16:53;;;;;;;;;12.50;8.00;;;;;-146.25;100.00;57879.81;5056208;28;45545;-73
2022/01/22 00:19:19;;;;;;;;;13.75;12.00;;;;;-146.25;100.00;57879.81;5058111;28;45887;-72
2022/01/22 00:21:44;;;;;;;;;8.25;7.75;;;;;-146.25;100.00;57879.81;5057724;28;45461;-72
2022/01/22 00:24:12;;;;;;;;;10.25;9.00;;;;;-146.25;100.00;57879.81;5057716;28;45258;-73
2022/01/22 00:26:38;;;;;;;;;8.75;7.75;;;;;-146.25;100.00;57879.81;5058837;28;45271;-72
2022/01/22 00:29:03;;;;;;;;;8.25;7.75;;;;;-146.25;100.00;57879.81;5059390;28;45441;-73
2022/01/22 00:31:29;;;;;;;;;9.25;8.25;;;;;-146.25;100.00;57879.81;5059539;28;45404;-73
2022/01/22 00:33:55;;;;;;;;;5.00;5.00;;;;;-146.25;100.00;57879.81;5059234;28;45564;-72
2022/01/22 00:36:21;;;;;;;;;9.00;8.50;;;;;-146.25;100.00;57879.81;5059309;28;45620;-73
2022/01/22 00:38:46;;;;;;;;;10.75;9.75;;;;;-146.25;100.00;57879.81;5059165;28;45580;-73
2022/01/22 00:41:12;;;;;;;;;13.75;11.75;;;;;-146.25;100.00;57879.81;5059155;28;45421;-73
2022/01/22 00:43:37;;;;;;;;;9.00;8.00;;;;;-146.25;100.00;57879.81;5058816;28;45525;-74
2022/01/22 00:46:03;;;;;;;;;8.25;8.00;;;;;-146.25;100.00;57879.81;5059023;28;45245;-73
2022/01/22 00:48:29;;;;;;;;;12.75;8.00;;;;;-146.25;100.00;57879.81;5058719;28;45219;-73
2022/01/22 00:50:56;;;;;;;;;8.50;8.00;;;;;-146.25;100.00;57879.81;5059455;28;45494;-73
2022/01/22 00:53:26;;;;;;;;;11.25;10.00;;;;;-146.25;100.00;57879.81;5059199;28;46222;-72
2022/01/22 00:55:52;;;;;;;;;7.00;5.00;;;;;-146.25;100.00;57879.81;5058994;28;45462;-73
2022/01/22 00:58:18;;;;;;;;;8.00;7.50;;;;;-146.25;100.00;57879.81;5057648;28;45481;-73
2022/01/22 01:00:44;;;;;;;;;11.00;7.50;;;;;-146.25;100.00;57879.81;5058999;28;45323;-73
2022/01/22 01:03:10;;;;;;;;;10.00;7.75;;;;;-146.25;100.00;57879.81;5058194;28;46317;-73
2022/01/22 01:05:36;;;;;;;;;7.00;6.50;;;;;-146.25;100.00;57879.81;5058663;28;45329;-73
2022/01/22 01:08:03;;;;;;;;;7.00;7.00;;;;;-146.25;100.00;57879.81;5058757;28;45421;-73
2022/01/22 01:10:30;;;;;;;;;7.25;7.25;;;;;-146.25;100.00;57879.81;5058887;28;45322;-73
2022/01/22 01:12:56;;;;;;;;;10.50;7.75;;;;;-146.25;100.00;57879.81;5059049;28;45363;-73
2022/01/22 01:32:12;;;;;;;;;9.75;8.75;;;;;-146.25;100.00;57879.81;5058611;28;45483;-73
2022/01/22 01:32:15;;;;;;;;;8.00;8.00;;;;;-146.25;100.00;57879.81;5058741;28;45238;-73
2022/01/22 01:34:43;;;;;;;;;8.00;8.00;;;;;-146.25;100.00;57879.81;5058126;28;45233;-73
2022/01/22 01:37:15;;;;;;;;;8.00;7.25;;;;;-146.25;100.00;57879.81;5058322;28;45421;-73
2022/01/22 01:39:43;;;;;;;;;9.50;7.50;;;;;-146.25;100.00;57879.81;5058167;28;45411;-72
2022/01/22 01:42:17;;;;;;;;;8.00;7.00;;;;;-146.25;100.00;57879.81;5058401;28;45500;-72
2022/01/22 01:44:43;;;;;;;;;10.50;8.00;;;;;-146.25;100.00;57879.81;5057918;28;46230;-72
2022/01/22 01:47:10;;;;;;;;;10.00;8.00;;;;;-146.25;100.00;57879.81;5058039;28;45566;-73
2022/01/22 01:49:36;;;;;;;;;7.75;7.75;;;;;-146.25;100.00;57879.81;5058144;28;45438;-73
2022/01/22 01:52:05;;;;;;;;;7.00;6.00;;;;;-146.25;100.00;57879.81;5058374;28;45366;-73
2022/01/22 01:59:52;;;;;;;;;17.00;13.00;;;;;-146.25;100.00;57879.81;5057803;28;45472;-72
2022/01/22 02:02:19;;;;;;;;;21.25;19.25;;;;;-146.25;100.00;57879.81;5057996;28;45287;-73
2022/01/22 02:04:44;;;;;;;;;19.25;17.25;;;;;-146.25;100.00;57879.81;5057615;28;46319;-73
2022/01/22 02:07:10;;;;;;;;;17.75;12.00;;;;;-146.25;100.00;57879.81;5057739;28;45557;-73
2022/01/22 02:09:37;;;;;;;;;13.00;8.50;;;;;-146.25;100.00;57879.81;5057751;28;45422;-72
2022/01/22 02:12:11;;;;;;;;;8.00;7.75;;;;;-146.25;100.00;57879.81;5057580;28;45354;-72
2022/01/22 02:25:22;;;;;;;;;9.50;9.50;;;;;-146.25;100.00;57879.81;5058606;28;45681;-72
2022/01/22 02:27:48;;;;;;;;;11.00;10.50;;;;;-146.25;100.00;57879.81;5057117;28;45324;-72
2022/01/22 02:30:20;;;;;;;;;17.00;14.00;;;;;-146.25;100.00;57879.81;5057372;28;45398;-71
2022/01/22 02:33:25;;;;;;;;;13.75;12.50;;;;;-146.25;100.00;57879.81;5057535;28;45323;-72
2022/01/22 02:38:16;;;;;;;;;13.50;8.50;;;;;-146.25;100.00;57879.81;5057257;28;45512;-72
2022/01/22 02:40:46;;;;;;;;;12.75;11.00;;;;;-146.25;100.00;57879.81;5057209;28;45418;-73
2022/01/22 02:43:12;;;;;;;;;7.50;7.50;;;;;-146.25;100.00;57879.81;5057174;28;45505;-73
2022/01/22 02:45:44;;;;;;;;;13.00;10.00;;;;;-146.25;100.00;57879.81;5056920;28;45955;-73
2022/01/22 02:48:11;;;;;;;;;10.75;8.75;;;;;-146.25;100.00;57879.81;5057256;28;45440;-72
2022/01/22 02:50:37;;;;;;;;;13.75;9.50;;;;;-146.25;100.00;57879.81;5057376;28;45493;-72
2022/01/22 02:53:04;;;;;;;;;12.00;8.50;;;;;-146.25;100.00;57879.81;5057477;28;45451;-71
2022/01/22 02:55:30;;;;;;;;;8.50;8.00;;;;;-146.25;100.00;57879.81;5057358;28;45278;-73
2022/01/22 02:57:55;;;;;;;;;9.00;7.25;;;;;-146.25;100.00;57879.81;5056804;28;45434;-73
2022/01/22 03:00:22;;;;;;;;;10.25;7.50;;;;;-146.25;100.00;57879.81;5057177;28;45201;-73
2022/01/22 03:02:48;;;;;;;;;8.00;7.50;;;;;-146.25;100.00;57879.81;5057260;28;45434;-73
2022/01/22 03:05:14;;;;;;;;;7.75;7.50;;;;;-146.25;100.00;57879.81;5056915;28;46182;-73
2022/01/22 03:07:41;;;;;;;;;8.00;7.00;;;;;-146.25;100.00;57879.81;5056911;28;45543;-73
2022/01/22 03:10:08;;;;;;;;;9.00;8.00;;;;;-146.25;100.00;57879.81;5056998;28;45403;-72
2022/01/22 03:27:52;;;;;;;;;7.50;7.00;;;;;-146.25;100.00;57879.81;5060154;28;45247;-73
2022/01/22 03:30:19;;;;;;;;;9.00;7.00;;;;;-146.25;100.00;57879.81;5060132;28;45483;-73
2022/01/22 03:32:49;;;;;;;;;6.00;5.25;;;;;-146.25;100.00;57879.81;5060586;28;45479;-74
2022/01/22 03:37:44;;;;;;;;;9.50;7.00;;;;;-146.25;100.00;57879.81;5059579;28;45509;-73
2022/01/22 03:40:12;;;;;;;;;10.00;8.00;;;;;-146.25;100.00;57879.81;5060186;28;45353;-74
2022/01/22 03:42:39;;;;;;;;;7.75;6.75;;;;;-146.25;100.00;57879.81;5060360;28;45425;-73
2022/01/22 03:45:07;;;;;;;;;13.00;11.00;;;;;-146.25;100.00;57879.81;5059942;28;45418;-73
2022/01/22 03:47:33;;;;;;;;;7.00;5.00;;;;;-146.25;100.00;57879.81;5060412;28;45228;-73
2022/01/22 03:49:58;;;;;;;;;10.00;8.50;;;;;-146.25;100.00;57879.81;5059894;28;45212;-73
2022/01/22 03:52:24;;;;;;;;;8.25;7.00;;;;;-146.25;100.00;57879.81;5060055;28;45245;-74
2022/01/22 03:54:50;;;;;;;;;8.50;7.00;;;;;-146.25;100.00;57879.81;5059645;28;46197;-73
2022/01/22 03:57:15;;;;;;;;;6.25;5.00;;;;;-146.25;100.00;57879.81;5059503;28;45431;-74
2022/01/22 03:59:41;;;;;;;;;10.50;9.00;;;;;-146.25;100.00;57879.81;5059752;28;45189;-74
2022/01/22 04:04:52;;;;;;;;;7.00;7.00;;;;;-146.25;100.00;57879.81;5068647;28;45353;-75
2022/01/22 04:10:06;;;;;;;;;42.50;32.25;;;;;-146.25;100.00;57879.81;5072627;28;45342;-73
2022/01/22 04:12:45;;;;;;;;;99.00;73.33;;;;;-146.25;100.00;57879.81;5059768;28;45474;-72
2022/01/22 04:15:13;;;;;;;;;37.50;31.25;;;;;-146.25;100.00;57879.81;5059467;28;46141;-74
2022/01/22 04:25:37;;;;;;;;;17.75;14.00;;;;;-146.25;100.00;57879.81;5059171;28;45537;-73
2022/01/22 04:28:03;;;;;;;;;7.00;5.25;;;;;-146.25;100.00;57879.81;5059353;28;45461;-72
2022/01/22 04:30:29;;;;;;;;;7.75;7.00;;;;;-146.25;100.00;57879.81;5059232;28;45362;-73
2022/01/22 04:32:55;;;;;;;;;8.25;6.50;;;;;-146.25;100.00;57879.81;5059554;28;45577;-73
2022/01/22 04:35:23;;;;;;;;;9.00;8.00;;;;;-146.25;100.00;57879.81;5059132;28;45338;-72
2022/01/22 04:37:49;;;;;;;;;13.00;10.75;;;;;-146.25;100.00;57879.81;5058416;28;45467;-73
2022/01/22 04:40:16;;;;;;;;;14.00;12.50;;;;;-146.25;100.00;57879.81;5058729;28;45376;-73
2022/01/22 04:42:43;;;;;;;;;14.00;12.00;;;;;-146.25;100.00;57879.81;5059137;28;45260;-73
2022/01/22 04:55:30;;;;;;;;;13.75;13.00;;;;;-146.25;100.00;57879.81;5058611;28;45443;-73
2022/01/22 04:57:56;;;;;;;;;17.50;13.00;;;;;-146.25;100.00;57879.81;5058382;28;45542;-73
2022/01/22 05:00:22;;;;;;;;;16.50;14.50;;;;;-146.25;100.00;57879.81;5058694;28;45572;-73
2022/01/22 05:02:48;;;;;;;;;18.00;13.25;;;;;-146.25;100.00;57879.81;5058799;28;45410;-74
2022/01/22 05:05:13;;;;;;;;;13.75;12.75;;;;;-146.25;100.00;57879.81;5058677;28;45437;-73
2022/01/22 05:07:39;;;;;;;;;13.75;12.50;;;;;-146.25;100.00;57879.81;5058615;28;45441;-72
2022/01/22 05:10:06;;;;;;;;;12.75;11.25;;;;;-146.25;100.00;57879.81;5058818;28;45533;-73
2022/01/22 05:12:31;;;;;;;;;10.00;10.00;;;;;-146.25;100.00;57879.81;5058784;28;45278;-73
2022/01/22 05:14:57;;;;;;;;;9.50;6.75;;;;;-146.25;100.00;57879.81;5058391;28;46590;-73
2022/01/22 05:17:23;;;;;;;;;7.50;6.25;;;;;-146.25;100.00;57879.81;5058308;28;45441;-73
2022/01/22 05:19:58;;;;;;;;;9.75;9.75;;;;;-146.25;100.00;57879.81;5058556;28;45366;-73
2022/01/22 05:25:15;;;;;;;;;14.50;12.50;;;;;-146.25;100.00;57879.81;5058568;28;45374;-73
2022/01/22 05:38:20;;;;;;;;;6.75;6.75;;;;;-146.25;100.00;57879.81;5057916;28;45523;-73
2022/01/22 05:40:46;;;;;;;;;15.00;13.50;;;;;-146.25;100.00;57879.81;5058040;28;45600;-73
2022/01/22 05:43:11;;;;;;;;;9.25;7.75;;;;;-146.25;100.00;57879.81;5058455;28;45362;-72
2022/01/22 05:45:37;;;;;;;;;19.75;17.25;;;;;-146.25;100.00;57879.81;5057907;28;45438;-73
2022/01/22 05:48:02;;;;;;;;;16.75;15.50;;;;;-146.25;100.00;57879.81;5058006;28;45504;-73
2022/01/22 05:53:13;;;;;;;;;12.25;7.50;;;;;-146.25;100.00;57879.81;5058219;28;45501;-73
2022/01/22 06:00:54;;;;;;;;;9.00;8.50;;;;;-146.25;100.00;57879.81;5057586;28;45287;-72
2022/01/22 06:03:20;;;;;;;;;10.75;10.00;;;;;-146.25;100.00;57879.81;5057662;28;45443;-73
2022/01/22 06:05:46;;;;;;;;;13.50;11.25;;;;;-146.25;100.00;57879.81;5056264;28;45918;-73
2022/01/22 06:08:15;;;;;;;;;6.00;4.50;;;;;-146.25;100.00;57879.81;5057060;28;45576;-73
2022/01/22 06:10:42;;;;;;;;;17.00;16.75;;;;;-146.25;100.00;57879.81;5057294;28;45412;-73
2022/01/22 06:13:14;;;;;;;;;13.00;11.25;;;;;-146.25;100.00;57879.81;5054940;28;45347;-73
2022/01/22 06:15:40;;;;;;;;;7.00;7.00;;;;;-146.25;100.00;57879.81;5057103;28;46050;-73
2022/01/22 06:18:06;;;;;;;;;10.50;8.50;;;;;-146.25;100.00;57879.81;5056716;28;45363;-72
2022/01/22 06:20:32;;;;;;;;;9.00;8.25;;;;;-146.25;100.00;57879.81;5056848;28;45214;-73
2022/01/22 06:22:58;;;;;;;;;16.00;15.75;;;;;-146.25;100.00;57879.81;5056924;28;45485;-73
2022/01/22 06:25:23;;;;;;;;;12.75;10.00;;;;;-146.25;100.00;57879.81;5056421;28;45947;-72
2022/01/22 06:27:49;;;;;;;;;9.00;9.00;;;;;-146.25;100.00;57879.81;5056433;28;45399;-73
2022/01/22 06:30:15;;;;;;;;;7.00;7.00;;;;;-146.25;100.00;57879.81;5055250;28;45601;-72
2022/01/22 06:32:40;;;;;;;;;9.25;8.75;;;;;-146.25;100.00;57879.81;5056622;28;45313;-72
2022/01/22 06:35:06;;;;;;;;;12.00;8.25;;;;;-146.25;100.00;57879.81;5056218;28;46193;-72
2022/01/22 06:37:32;;;;;;;;;18.75;16.75;;;;;-146.25;100.00;57879.81;5056569;28;45515;-73
2022/01/22 06:42:33;;;;;;;;;13.00;10.00;;;;;-146.25;100.00;57879.81;5054775;28;45421;-73
2022/01/22 06:45:01;;;;;;;;;8.75;8.75;;;;;-146.25;100.00;57879.81;5055489;28;45352;-73
2022/01/22 06:47:29;;;;;;;;;10.00;9.00;;;;;-146.25;100.00;57879.81;5055376;28;45733;-73
2022/01/22 06:49:54;;;;;;;;;12.25;10.00;;;;;-146.25;100.00;57879.81;5055415;28;45472;-74
2022/01/22 06:52:20;;;;;;;;;17.00;16.00;;;;;-146.25;100.00;57879.81;5055267;28;45522;-74
2022/01/22 06:54:46;;;;;;;;;24.50;20.50;;;;;-146.25;100.00;57879.81;5055078;28;46015;-72
2022/01/22 06:57:12;;;;;;;;;16.25;15.75;;;;;-146.25;100.00;57879.81;5055573;28;45604;-74
2022/01/22 06:59:38;;;;;;;;;16.50;14.25;;;;;-146.25;100.00;57879.81;5055278;28;45532;-72
2022/01/22 07:02:04;;;;;;;;;12.00;11.75;;;;;-146.25;100.00;57879.81;5060242;28;45461;-73
2022/01/22 07:04:31;;;;;;;;;14.25;12.00;;;;;-146.25;100.00;57879.81;5060405;28;45607;-72
2022/01/22 07:06:57;;;;;;;;;18.00;15.00;;;;;-146.25;100.00;57879.81;5061904;28;45279;-73
2022/01/22 07:09:23;;;;;;;;;18.00;16.50;;;;;-146.25;100.00;57879.81;5059323;28;45373;-73
2022/01/22 07:11:49;;;;;;;;;12.25;12.00;;;;;-146.25;100.00;57879.81;5062204;28;45760;-72
2022/01/22 07:14:16;;;;;;;;;21.00;19.00;;;;;-146.25;100.00;57879.81;5061652;28;45394;-72
2022/01/22 07:16:41;;;;;;;;;27.50;21.50;;;;;-146.25;100.00;57879.81;5062000;28;45494;-73
2022/01/22 07:19:08;;;;;;;;;30.00;24.00;;;;;-146.25;100.00;57879.81;5062081;28;45454;-72
2022/01/22 07:21:35;;;;;;;;;20.25;16.00;;;;;-146.25;100.00;57879.81;5062098;28;45515;-73
2022/01/22 07:26:27;;;;;;;;;26.75;23.50;;;;;-146.25;100.00;57879.81;5061524;28;45291;-74
2022/01/22 07:28:53;;;;;;;;;18.00;16.00;;;;;-146.25;100.00;57879.81;5061820;28;45459;-74
2022/01/22 07:31:20;;;;;;;;;23.25;20.25;;;;;-146.25;100.00;57879.81;5060240;28;45656;-73
2022/01/22 07:33:47;;;;;;;;;150.00;123.75;;;;;-146.25;100.00;57879.81;5061422;28;45540;-73
2022/01/22 07:36:12;;;;;;;;;130.50;119.25;;;;;-146.25;100.00;57879.81;5061432;28;45331;-72
2022/01/22 07:38:39;;;;;;;;;58.00;50.00;;;;;-146.25;100.00;57879.81;5061542;28;45387;-74
2022/01/22 07:41:08;;;;;;;;;25.25;21.00;;;;;-146.25;100.00;57879.81;5061591;28;45418;-73
2022/01/22 07:43:35;;;;;;;;;32.75;27.00;;;;;-146.25;100.00;57879.81;5058645;28;45601;-74
2022/01/22 07:46:01;;;;;;;;;49.00;34.50;;;;;-146.25;100.00;57879.81;5061963;28;45467;-73
2022/01/22 07:48:28;;;;;;;;;41.25;38.50;;;;;-146.25;100.00;57879.81;5061477;28;45471;-74
2022/01/22 07:50:53;;;;;;;;;53.25;44.25;;;;;-146.25;100.00;57879.81;5061598;28;46198;-73
2022/01/22 07:53:19;;;;;;;;;41.75;36.00;;;;;-146.25;100.00;57879.81;5061391;28;45478;-73
2022/01/22 07:55:44;;;;;;;;;44.00;41.50;;;;;-146.25;100.00;57879.81;5061550;28;45291;-73
2022/01/22 07:58:11;;;;;;;;;164.25;132.25;;;;;-146.25;100.00;57879.81;5061572;28;45399;-73
2022/01/22 08:00:38;;;;;;;;;103.00;75.67;;;;;-146.25;100.00;57879.81;5077151;28;45527;-73
2022/01/22 08:03:06;;;;;;;;;64.00;49.00;;;;;-146.25;100.00;57879.81;5060988;28;46215;-73
2022/01/22 08:05:31;;;;;;;;;21.50;20.25;;;;;-146.25;100.00;57879.81;5061047;28;45392;-73
2022/01/22 08:07:57;;;;;;;;;45.75;42.75;;;;;-146.25;100.00;57879.81;5061233;28;45552;-73
2022/01/22 08:10:23;;;;;;;;;64.00;51.75;;;;;-146.25;100.00;57879.81;5061086;28;45441;-73
2022/01/22 08:12:50;;;;;;;;;60.75;48.50;;;;;-146.25;100.00;57879.81;5058368;28;46013;-73
2022/01/22 08:15:17;;;;;;;;;152.50;122.50;;;;;-146.25;100.00;57879.81;5048118;28;45383;-73
2022/01/22 08:17:44;;;;;;;;;43.50;40.50;;;;;-146.25;100.00;57879.81;5058364;28;45405;-73
2022/01/22 08:20:12;;;;;;;;;37.25;34.25;;;;;-146.25;100.00;57879.81;5052235;28;46093;-72
2022/01/22 08:22:38;;;;;;;;;38.00;33.00;;;;;-146.25;100.00;57879.81;5060538;27;45604;-72
2022/01/22 08:25:04;;;;;;;;;66.25;53.25;;;;;-146.25;100.00;57879.81;5056187;28;45501;-74
2022/01/22 08:29:59;;;;;;;;;19.00;16.25;;;;;-146.25;100.00;57879.81;5072785;28;45855;-73
2022/01/22 08:37:39;;;;;;;;;49.50;41.25;;;;;-146.25;100.00;57879.81;5053652;28;45573;-72
2022/01/22 08:40:08;;;;;;;;;56.00;49.75;;;;;-146.25;100.00;57879.81;5053774;28;45312;-72
2022/01/22 08:42:33;;;;;;;;;65.25;51.00;;;;;-146.25;100.00;57879.81;5056515;28;46025;-72
2022/01/22 08:44:59;;;;;;;;;47.25;41.00;;;;;-146.25;100.00;57879.81;5056478;28;45384;-72
2022/01/22 08:47:25;;;;;;;;;54.50;44.25;;;;;-146.25;100.00;57879.81;5056338;28;45471;-72
2022/01/22 08:49:50;;;;;;;;;50.50;43.50;;;;;-146.25;100.00;57879.81;5056249;28;45498;-75
2022/01/22 08:52:18;;;;;;;;;66.75;53.50;;;;;-146.25;100.00;57879.81;5055677;28;45380;-74
2022/01/22 08:54:45;;;;;;;;;67.00;55.75;;;;;-146.25;100.00;57879.81;5055820;28;45347;-74
2022/01/22 08:57:10;;;;;;;;;58.75;46.25;;;;;-146.25;100.00;57879.81;5056343;28;45453;-74
2022/01/22 08:59:36;;;;;;;;;37.00;32.75;;;;;-146.25;100.00;57879.81;5056087;28;45371;-72
2022/01/22 09:02:04;;;;;;;;;51.75;43.50;;;;;-146.25;100.00;57879.81;5055993;28;45425;-72
2022/01/22 09:04:31;;;;;;;;;32.50;28.25;;;;;-146.25;100.00;57879.81;5056327;28;45500;-72
2022/01/22 09:06:57;;;;;;;;;51.25;44.00;;;;;-146.25;100.00;57879.81;5057383;28;45477;-72
2022/01/22 09:09:24;;;;;;;;;26.75;24.00;;;;;-146.25;100.00;57879.81;5057468;28;45483;-72
2022/01/22 09:11:49;;;;;;;;;20.75;18.25;;;;;-146.25;100.00;57879.81;5057126;28;45385;-72
2022/01/22 09:14:16;;;;;;;;;22.50;21.25;;;;;-146.25;100.00;57879.81;5056245;28;45464;-72
2022/01/22 09:16:44;;;;;;;;;27.50;23.25;;;;;-146.25;100.00;57879.81;5057723;28;45342;-72
2022/01/22 09:19:11;;;;;;;;;13.75;12.00;;;;;-146.25;100.00;57879.81;5057938;28;45473;-72
2022/01/22 09:21:43;;;;;;;;;9.50;9.00;;;;;-146.25;100.00;57879.81;5056814;28;45529;-72
2022/01/22 09:24:10;;;;;;;;;11.75;10.00;;;;;-146.25;100.00;57879.81;5056345;28;45503;-72
2022/01/22 09:26:36;;;;;;;;;10.50;8.00;;;;;-146.25;100.00;57879.81;5057609;28;45528;-72
2022/01/22 09:29:04;;;;;;;;;14.50;13.75;;;;;-146.25;100.00;57879.81;5057228;28;45371;-72
2022/01/22 09:31:31;;;;;;;;;17.00;15.00;;;;;-146.25;100.00;57879.81;5056960;28;45485;-72
2022/01/22 09:33:59;;;;;;;;;34.25;32.50;;;;;-146.25;100.00;57879.81;5057686;28;45429;-75
2022/01/22 09:36:26;;;;;;;;;24.75;24.25;;;;;-146.25;100.00;57879.81;5058177;28;45447;-72
2022/01/22 09:38:53;;;;;;;;;20.25;18.75;;;;;-146.25;100.00;57879.81;5051377;28;45326;-70
2022/01/22 09:41:20;;;;;;;;;27.25;26.00;;;;;-146.25;100.00;57879.81;5045950;28;46076;-70
2022/01/22 09:43:46;;;;;;;;;30.50;29.00;;;;;-146.25;100.00;57879.81;5046879;28;46007;-70
2022/01/22 09:46:11;;;;;;;;;50.00;38.50;;;;;-146.25;100.00;57879.81;5053831;28;45548;-70
2022/01/22 09:48:42;;;;;;;;;32.50;27.00;;;;;-146.25;100.00;57879.81;5056878;28;45359;-71
2022/01/22 09:51:08;;;;;;;;;18.75;18.00;;;;;-146.25;100.00;57879.81;5057398;28;45670;-71
2022/01/22 09:53:34;;;;;;;;;13.67;12.00;;;;;-146.25;100.00;57879.81;5056538;28;45393;-71
2022/01/22 09:55:59;;;;;;;;;18.00;16.25;;;;;-146.25;100.00;57879.81;5057475;28;45442;-71
2022/01/22 09:58:25;;;;;;;;;15.00;13.00;;;;;-146.25;100.00;57879.81;5057801;28;45275;-71
2022/01/22 10:00:51;;;;;;;;;10.00;10.00;;;;;-146.25;100.00;57879.81;5057438;28;46011;-71
2022/01/22 10:03:19;;;;;;;;;16.67;14.00;;;;;-146.25;100.00;57879.81;5057291;28;45240;-71
2022/01/22 10:05:45;;;;;;;;;9.00;9.00;;;;;-146.25;100.00;57879.81;5057984;28;45304;-71
2022/01/22 10:08:21;;;;;;;;;9.67;9.33;;;;;-146.25;100.00;57879.81;5057812;28;45300;-71
2022/01/22 10:10:48;;;;;;;;;11.67;9.67;;;;;-146.25;100.00;57879.81;5057575;28;45363;-71
2022/01/22 10:13:14;;;;;;;;;10.33;9.00;;;;;-146.25;100.00;57879.81;5057567;28;46025;-70
2022/01/22 10:15:41;;;;;;;;;8.00;7.33;;;;;-146.25;100.00;57879.81;5057584;28;45177;-71
2022/01/22 10:18:08;;;;;;;;;21.00;19.33;;;;;-146.25;100.00;57879.81;5057712;28;45330;-72
2022/01/22 10:20:41;;;;;;;;;10.67;10.67;;;;;-146.25;100.00;57879.81;5057278;28;46203;-72
2022/01/22 10:23:19;;;;;;;;;17.00;17.00;;;;;-146.25;100.00;57879.81;5056597;28;45476;-72
2022/01/22 10:25:51;;;;;;;;;16.00;15.33;;;;;-146.25;100.00;57879.81;5045887;28;45758;-71
2022/01/22 10:28:22;;;;;;;;;19.67;18.33;;;;;-146.25;100.00;57879.81;5062985;28;45571;-72
2022/01/22 10:30:55;;;;;;;;;19.67;17.67;;;;;-146.25;100.00;57879.81;5036881;28;45362;-72
2022/01/22 10:33:34;;;;;;;;;21.00;20.33;;;;;-146.25;100.00;57879.81;5036765;28;45429;-72
2022/01/22 10:36:16;;;;;;;;;14.67;13.67;;;;;-146.25;100.00;57879.81;5036286;28;45292;-72
2022/01/22 10:38:44;;;;;;;;;12.00;11.33;;;;;-146.25;100.00;57879.81;5037119;28;45472;-72
2022/01/22 10:41:12;;;;;;;;;14.33;12.00;;;;;-146.25;100.00;57879.81;5044285;28;45505;-72
2022/01/22 10:43:43;;;;;;;;;13.00;12.33;;;;;-146.25;100.00;57879.81;5046728;28;45185;-72
2022/01/22 10:48:56;;;;;;;;;14.00;14.00;;;;;-146.25;100.00;57879.81;5047253;28;45517;-72
2022/01/22 10:51:24;;;;;;;;;18.67;16.67;;;;;-146.25;100.00;57879.81;5056174;28;46065;-72
2022/01/22 10:53:57;;;;;;;;;15.00;14.00;;;;;-146.25;100.00;57879.81;5056859;28;45524;-72
2022/01/22 10:56:25;;;;;;;;;16.33;14.67;;;;;-146.25;100.00;57879.81;5053381;28;45279;-71
2022/01/22 10:59:05;;;;;;;;;22.00;21.00;;;;;-146.25;100.00;57879.81;5043439;28;45425;-72
2022/01/22 11:01:51;;;;;;;;;18.33;16.00;;;;;-146.25;100.00;57879.81;5043370;28;46093;-72
2022/01/22 11:04:28;;;;;;;;;50.25;39.25;;;;;-146.25;100.00;57879.81;5046132;28;45495;-72
2022/01/22 11:07:04;;;;;;;;;21.00;20.00;;;;;-146.25;100.00;57879.81;5046759;28;45524;-72
2022/01/22 11:09:30;;;;;;;;;15.00;15.00;;;;;-146.25;100.00;57879.81;5053853;28;45555;-72
2022/01/22 11:11:57;;;;;;;;;24.25;23.25;;;;;-146.25;100.00;57879.81;5041386;28;45383;-72
2022/01/22 11:14:23;;;;;;;;;42.25;32.75;;;;;-146.25;100.00;57879.81;5037986;28;45505;-72
2022/01/22 11:16:50;;;;;;;;;25.75;24.75;;;;;-146.25;100.00;57879.81;5045031;28;45504;-72
2022/01/22 11:19:18;;;;;;;;;51.00;39.50;;;;;-146.25;100.00;57879.81;5044029;28;45453;-74
2022/01/22 11:21:47;;;;;;;;;30.50;24.25;;;;;-146.25;100.00;57879.81;5045322;28;45509;-72
2022/01/22 11:24:16;;;;;;;;;12.33;10.00;;;;;-146.25;100.00;57879.81;5045504;28;45493;-71
2022/01/22 11:26:47;;;;;;;;;8.75;8.00;;;;;-146.25;100.00;57879.81;5043905;28;45403;-72
2022/01/22 11:29:16;;;;;;;;;13.00;10.50;;;;;-146.25;100.00;57879.81;5044212;28;45313;-72
2022/01/22 11:31:45;;;;;;;;;17.75;15.25;;;;;-146.25;100.00;57879.81;5046447;28;46432;-75
2022/01/22 11:34:16;;;;;;;;;16.00;15.75;;;;;-146.25;100.00;57879.81;5043975;28;45471;-73
2022/01/22 11:36:54;;;;;;;;;25.00;19.50;;;;;-146.25;100.00;57879.81;5047316;28;45593;-73
2022/01/22 11:39:23;;;;;;;;;18.75;18.00;;;;;-146.25;100.00;57879.81;5056705;28;45256;-74
2022/01/22 11:41:54;;;;;;;;;18.00;16.75;;;;;-146.25;100.00;57879.81;5056427;28;46187;-73
2022/01/22 11:44:29;;;;;;;;;12.75;10.25;;;;;-146.25;100.00;57879.81;5056332;28;45467;-73
2022/01/22 11:47:08;;;;;;;;;33.50;29.25;;;;;-146.25;100.00;57879.81;5056307;28;45534;-75
2022/01/22 11:49:34;;;;;;;;;21.25;18.75;;;;;-146.25;100.00;57879.81;5059604;28;45469;-76
2022/01/22 11:52:12;;;;;;;;;14.00;13.50;;;;;-146.25;100.00;57879.81;5057073;28;45435;-77
2022/01/22 11:55:01;;;;;;;;;25.00;22.25;;;;;-146.25;100.00;57879.81;5064502;28;45439;-75
2022/01/22 11:57:31;;;;;;;;;22.25;20.75;;;;;-146.25;100.00;57879.81;5050971;28;45392;-75
2022/01/22 12:00:23;;;;;;;;;17.50;17.00;;;;;-146.25;100.00;57879.81;5049947;28;45458;-73
2022/01/22 12:03:08;;;;;;;;;14.75;12.25;;;;;-146.25;100.00;57879.81;5058488;28;45370;-76
2022/01/22 12:05:58;;;;;;;;;14.00;13.25;;;;;-146.25;100.00;57879.81;5059536;28;45296;-73
2022/01/22 12:08:24;;;;;;;;;15.25;14.75;;;;;-146.25;100.00;57879.81;5059790;28;45511;-76
2022/01/22 12:16:40;;;;;;;;;25.25;23.50;;;;;-146.25;100.00;57879.81;5059182;28;45313;-74
2022/01/22 12:19:36;;;;;;;;;17.25;16.00;;;;;-146.25;100.00;57879.81;5055794;28;45453;-72
2022/01/22 12:22:31;;;;;;;;;15.75;14.75;;;;;-146.25;100.00;57879.81;5059539;28;45203;-73
2022/01/22 12:25:22;;;;;;;;;9.75;8.75;;;;;-146.25;100.00;57879.81;5058948;28;46058;-74
2022/01/22 12:27:50;;;;;;;;;15.25;11.00;;;;;-146.25;100.00;57879.81;5059189;28;45356;-74
2022/01/22 12:30:43;;;;;;;;;14.25;13.50;;;;;-146.25;100.00;57879.81;5059104;28;45472;-74
2022/01/22 12:33:32;;;;;;;;;15.25;14.75;;;;;-146.25;100.00;57879.81;5059300;28;45480;-74
2022/01/22 12:36:00;;;;;;;;;16.00;14.00;;;;;-146.25;100.00;57879.81;5059169;28;45438;-75
2022/01/22 12:40:59;;;;;;;;;13.25;11.00;;;;;-146.25;100.00;57879.81;5059392;28;45465;-72
2022/01/22 12:43:34;;;;;;;;;10.50;10.25;;;;;-146.25;100.00;57879.81;5059623;28;45193;-75
2022/01/22 12:46:03;;;;;;;;;15.00;13.50;;;;;-146.25;100.00;57879.81;5059095;28;45544;-74
2022/01/22 12:48:35;;;;;;;;;12.25;10.50;;;;;-146.25;100.00;57879.81;5058280;28;45734;-72
2022/01/22 12:51:03;;;;;;;;;11.75;10.75;;;;;-146.25;100.00;57879.81;5057481;28;46816;-74
2022/01/22 12:53:30;;;;;;;;;9.75;9.00;;;;;-146.25;100.00;57879.81;5054412;28;45421;-72
2022/01/22 12:58:27;;;;;;;;;11.75;10.50;;;;;-146.25;100.00;57879.81;5045839;28;45926;-73
2022/01/22 13:01:28;;;;;;;;;9.00;9.00;;;;;-146.25;100.00;57879.81;5057579;28;45385;-72
2022/01/22 13:03:55;;;;;;;;;12.75;8.75;;;;;-146.25;100.00;57879.81;5062173;28;45519;-75
2022/01/22 13:06:35;;;;;;;;;11.75;9.00;;;;;-146.25;100.00;57879.81;5071568;28;45441;-76
2022/01/22 13:09:03;;;;;;;;;22.50;18.50;;;;;-146.25;100.00;57879.81;5074897;28;45354;-72